sensor_id;sensor_type;location;lat;lon;timestamp;P1;durP1;ratioP1;P2;durP2;ratioP2
45762;SDS011;37512;52.408;13.356;2022-12-07T00:02:37;11.75;;;6.35;;
45762;SDS011;37512;52.408;13.356;2022-12-07T00:06:42;14.77;;;7.97;;
45762;SDS011;37512;52.408;13.356;2022-12-07T00:10:45;7.22;;;4.72;;
45762;SDS011;37512;52.408;13.356;2022-12-07T00:14:47;14.25;;;8.15;;
45762;SDS011;37512;52.408;13.356;2022-12-07T00:18:48;4.43;;;4.00;;
45762;SDS011;37512;52.408;13.356;2022-12-07T00:22:50;12.18;;;7.40;;
45762;SDS011;37512;52.408;13.356;2022-12-07T00:26:52;15.00;;;8.45;;
45762;SDS011;37512;52.408;13.356;2022-12-07T00:30:59;14.32;;;8.25;;
45762;SDS011;37512;52.408;13.356;2022-12-07T00:35:10;11.65;;;6.65;;
45762;SDS011;37512;52.408;13.356;2022-12-07T00:39:12;10.93;;;6.68;;
45762;SDS011;37512;52.408;13.356;2022-12-07T00:43:13;4.57;;;3.38;;
45762;SDS011;37512;52.408;13.356;2022-12-07T00:47:14;9.93;;;6.65;;
45762;SDS011;37512;52.408;13.356;2022-12-07T00:51:17;11.40;;;6.88;;
45762;SDS011;37512;52.408;13.356;2022-12-07T00:55:19;6.93;;;4.20;;
45762;SDS011;37512;52.408;13.356;2022-12-07T00:59:20;6.10;;;4.00;;
45762;SDS011;37512;52.408;13.356;2022-12-07T01:03:22;2.97;;;2.00;;
45762;SDS011;37512;52.408;13.356;2022-12-07T01:07:23;8.10;;;5.28;;
45762;SDS011;37512;52.408;13.356;2022-12-07T01:11:27;8.50;;;5.15;;
45762;SDS011;37512;52.408;13.356;2022-12-07T01:15:30;4.88;;;3.08;;
45762;SDS011;37512;52.408;13.356;2022-12-07T01:19:31;7.55;;;4.50;;
45762;SDS011;37512;52.408;13.356;2022-12-07T01:23:33;4.18;;;1.95;;
45762;SDS011;37512;52.408;13.356;2022-12-07T01:27:36;9.25;;;5.65;;
45762;SDS011;37512;52.408;13.356;2022-12-07T01:31:38;7.85;;;5.28;;
45762;SDS011;37512;52.408;13.356;2022-12-07T01:35:39;7.93;;;5.50;;
45762;SDS011;37512;52.408;13.356;2022-12-07T01:39:40;8.82;;;5.40;;
45762;SDS011;37512;52.408;13.356;2022-12-07T01:48:09;8.82;;;5.68;;
45762;SDS011;37512;52.408;13.356;2022-12-07T01:52:17;11.85;;;6.10;;
45762;SDS011;37512;52.408;13.356;2022-12-07T01:56:34;7.97;;;4.82;;
45762;SDS011;37512;52.408;13.356;2022-12-07T02:00:37;9.20;;;6.13;;
45762;SDS011;37512;52.408;13.356;2022-12-07T02:04:39;9.05;;;4.88;;
45762;SDS011;37512;52.408;13.356;2022-12-07T02:08:41;7.50;;;4.53;;
45762;SDS011;37512;52.408;13.356;2022-12-07T02:12:47;8.15;;;5.32;;
45762;SDS011;37512;52.408;13.356;2022-12-07T02:29:33;8.15;;;5.47;;
45762;SDS011;37512;52.408;13.356;2022-12-07T02:33:43;5.10;;;3.97;;
45762;SDS011;37512;52.408;13.356;2022-12-07T02:42:16;3.70;;;3.03;;
45762;SDS011;37512;52.408;13.356;2022-12-07T02:46:28;5.57;;;2.67;;
45762;SDS011;37512;52.408;13.356;2022-12-07T02:50:33;9.07;;;4.18;;
45762;SDS011;37512;52.408;13.356;2022-12-07T02:54:35;5.47;;;3.72;;
45762;SDS011;37512;52.408;13.356;2022-12-07T03:03:29;7.57;;;4.67;;
45762;SDS011;37512;52.408;13.356;2022-12-07T03:11:51;8.93;;;5.28;;
45762;SDS011;37512;52.408;13.356;2022-12-07T03:16:07;8.40;;;5.30;;
45762;SDS011;37512;52.408;13.356;2022-12-07T03:20:16;7.03;;;4.55;;
45762;SDS011;37512;52.408;13.356;2022-12-07T03:24:21;7.80;;;4.88;;
45762;SDS011;37512;52.408;13.356;2022-12-07T03:28:29;15.13;;;5.18;;
45762;SDS011;37512;52.408;13.356;2022-12-07T03:36:45;11.43;;;6.32;;
45762;SDS011;37512;52.408;13.356;2022-12-07T03:40:52;13.00;;;7.55;;
45762;SDS011;37512;52.408;13.356;2022-12-07T03:45:00;16.08;;;6.63;;
45762;SDS011;37512;52.408;13.356;2022-12-07T03:49:16;11.82;;;6.75;;
45762;SDS011;37512;52.408;13.356;2022-12-07T03:53:35;12.77;;;7.10;;
45762;SDS011;37512;52.408;13.356;2022-12-07T03:57:55;17.05;;;7.07;;
45762;SDS011;37512;52.408;13.356;2022-12-07T04:02:02;12.10;;;6.68;;
45762;SDS011;37512;52.408;13.356;2022-12-07T04:06:06;5.85;;;3.38;;
45762;SDS011;37512;52.408;13.356;2022-12-07T04:10:07;14.43;;;6.82;;
45762;SDS011;37512;52.408;13.356;2022-12-07T04:14:09;12.35;;;6.57;;
45762;SDS011;37512;52.408;13.356;2022-12-07T04:18:19;15.13;;;7.20;;
45762;SDS011;37512;52.408;13.356;2022-12-07T04:22:21;13.73;;;7.85;;
45762;SDS011;37512;52.408;13.356;2022-12-07T04:26:22;21.23;;;10.80;;
45762;SDS011;37512;52.408;13.356;2022-12-07T04:30:24;21.42;;;7.10;;
45762;SDS011;37512;52.408;13.356;2022-12-07T04:34:25;23.25;;;12.25;;
45762;SDS011;37512;52.408;13.356;2022-12-07T04:38:27;17.73;;;10.10;;
45762;SDS011;37512;52.408;13.356;2022-12-07T04:42:28;26.13;;;12.20;;
45762;SDS011;37512;52.408;13.356;2022-12-07T04:46:30;20.13;;;12.30;;
45762;SDS011;37512;52.408;13.356;2022-12-07T04:50:33;8.73;;;5.22;;
45762;SDS011;37512;52.408;13.356;2022-12-07T04:54:36;19.13;;;10.73;;
45762;SDS011;37512;52.408;13.356;2022-12-07T04:58:37;19.30;;;9.18;;
45762;SDS011;37512;52.408;13.356;2022-12-07T05:02:39;26.88;;;13.88;;
45762;SDS011;37512;52.408;13.356;2022-12-07T05:06:40;18.77;;;8.95;;
45762;SDS011;37512;52.408;13.356;2022-12-07T05:10:42;33.85;;;16.05;;
45762;SDS011;37512;52.408;13.356;2022-12-07T05:14:43;26.98;;;13.82;;
45762;SDS011;37512;52.408;13.356;2022-12-07T05:18:45;19.63;;;11.23;;
45762;SDS011;37512;52.408;13.356;2022-12-07T05:22:46;14.45;;;8.30;;
45762;SDS011;37512;52.408;13.356;2022-12-07T05:26:48;26.17;;;13.30;;
45762;SDS011;37512;52.408;13.356;2022-12-07T05:30:49;19.45;;;9.80;;
45762;SDS011;37512;52.408;13.356;2022-12-07T05:34:57;24.95;;;12.10;;
45762;SDS011;37512;52.408;13.356;2022-12-07T05:38:59;26.70;;;12.45;;
45762;SDS011;37512;52.408;13.356;2022-12-07T05:43:01;25.20;;;10.70;;
45762;SDS011;37512;52.408;13.356;2022-12-07T05:47:05;22.90;;;12.05;;
45762;SDS011;37512;52.408;13.356;2022-12-07T05:51:06;27.23;;;11.88;;
45762;SDS011;37512;52.408;13.356;2022-12-07T05:55:08;9.93;;;7.35;;
45762;SDS011;37512;52.408;13.356;2022-12-07T05:59:09;32.15;;;15.40;;
45762;SDS011;37512;52.408;13.356;2022-12-07T06:03:28;12.15;;;7.47;;
45762;SDS011;37512;52.408;13.356;2022-12-07T06:07:29;35.28;;;14.73;;
45762;SDS011;37512;52.408;13.356;2022-12-07T06:11:31;38.28;;;16.02;;
45762;SDS011;37512;52.408;13.356;2022-12-07T06:19:53;21.08;;;10.35;;
45762;SDS011;37512;52.408;13.356;2022-12-07T06:23:54;40.95;;;17.30;;
45762;SDS011;37512;52.408;13.356;2022-12-07T06:27:56;36.28;;;16.27;;
45762;SDS011;37512;52.408;13.356;2022-12-07T06:31:57;33.13;;;16.33;;
45762;SDS011;37512;52.408;13.356;2022-12-07T06:35:59;18.17;;;8.90;;
45762;SDS011;37512;52.408;13.356;2022-12-07T06:40:00;30.30;;;15.15;;
45762;SDS011;37512;52.408;13.356;2022-12-07T06:44:03;35.28;;;14.95;;
45762;SDS011;37512;52.408;13.356;2022-12-07T06:48:05;37.33;;;16.55;;
45762;SDS011;37512;52.408;13.356;2022-12-07T06:52:07;38.58;;;17.35;;
45762;SDS011;37512;52.408;13.356;2022-12-07T06:56:08;38.20;;;16.95;;
45762;SDS011;37512;52.408;13.356;2022-12-07T07:00:10;35.00;;;14.02;;
45762;SDS011;37512;52.408;13.356;2022-12-07T07:04:20;26.75;;;11.52;;
45762;SDS011;37512;52.408;13.356;2022-12-07T07:08:21;15.25;;;9.02;;
45762;SDS011;37512;52.408;13.356;2022-12-07T07:12:24;17.48;;;9.90;;
45762;SDS011;37512;52.408;13.356;2022-12-07T07:16:25;17.63;;;11.80;;
45762;SDS011;37512;52.408;13.356;2022-12-07T07:20:27;28.15;;;14.32;;
45762;SDS011;37512;52.408;13.356;2022-12-07T07:24:29;25.35;;;13.60;;
45762;SDS011;37512;52.408;13.356;2022-12-07T07:28:30;13.00;;;7.38;;
45762;SDS011;37512;52.408;13.356;2022-12-07T07:32:32;33.53;;;16.55;;
45762;SDS011;37512;52.408;13.356;2022-12-07T07:36:34;35.58;;;17.15;;
45762;SDS011;37512;52.408;13.356;2022-12-07T07:40:35;32.65;;;16.08;;
45762;SDS011;37512;52.408;13.356;2022-12-07T07:44:37;40.40;;;15.18;;
45762;SDS011;37512;52.408;13.356;2022-12-07T07:48:39;18.73;;;10.40;;
45762;SDS011;37512;52.408;13.356;2022-12-07T07:52:40;17.15;;;8.98;;
45762;SDS011;37512;52.408;13.356;2022-12-07T07:56:42;35.03;;;15.60;;
45762;SDS011;37512;52.408;13.356;2022-12-07T08:00:43;17.23;;;9.43;;
45762;SDS011;37512;52.408;13.356;2022-12-07T08:04:45;22.20;;;11.40;;
45762;SDS011;37512;52.408;13.356;2022-12-07T08:08:47;11.65;;;7.85;;
45762;SDS011;37512;52.408;13.356;2022-12-07T08:12:48;16.48;;;8.57;;
45762;SDS011;37512;52.408;13.356;2022-12-07T08:17:08;13.00;;;6.15;;
45762;SDS011;37512;52.408;13.356;2022-12-07T08:21:11;16.80;;;11.20;;
45762;SDS011;37512;52.408;13.356;2022-12-07T08:25:15;13.93;;;7.70;;
45762;SDS011;37512;52.408;13.356;2022-12-07T08:29:16;12.68;;;8.13;;
45762;SDS011;37512;52.408;13.356;2022-12-07T08:33:18;8.60;;;6.18;;
45762;SDS011;37512;52.408;13.356;2022-12-07T08:37:23;8.85;;;5.82;;
45762;SDS011;37512;52.408;13.356;2022-12-07T08:41:27;9.70;;;5.80;;
45762;SDS011;37512;52.408;13.356;2022-12-07T08:45:28;8.80;;;5.40;;
45762;SDS011;37512;52.408;13.356;2022-12-07T08:49:35;20.75;;;5.72;;
45762;SDS011;37512;52.408;13.356;2022-12-07T08:53:39;8.88;;;5.20;;
45762;SDS011;37512;52.408;13.356;2022-12-07T08:57:42;6.65;;;4.22;;
45762;SDS011;37512;52.408;13.356;2022-12-07T09:01:43;4.13;;;2.78;;
45762;SDS011;37512;52.408;13.356;2022-12-07T09:05:45;3.55;;;2.35;;
45762;SDS011;37512;52.408;13.356;2022-12-07T09:09:46;5.25;;;3.25;;
45762;SDS011;37512;52.408;13.356;2022-12-07T09:13:48;2.28;;;1.90;;
45762;SDS011;37512;52.408;13.356;2022-12-07T09:17:49;5.22;;;2.95;;
45762;SDS011;37512;52.408;13.356;2022-12-07T09:21:51;4.30;;;2.55;;
45762;SDS011;37512;52.408;13.356;2022-12-07T09:25:52;3.80;;;2.70;;
45762;SDS011;37512;52.408;13.356;2022-12-07T09:29:54;1.60;;;1.50;;
45762;SDS011;37512;52.408;13.356;2022-12-07T09:33:57;0.80;;;0.80;;
45762;SDS011;37512;52.408;13.356;2022-12-07T09:38:00;1.98;;;1.60;;
45762;SDS011;37512;52.408;13.356;2022-12-07T09:42:02;1.70;;;1.40;;
45762;SDS011;37512;52.408;13.356;2022-12-07T09:46:08;1.67;;;1.50;;
45762;SDS011;37512;52.408;13.356;2022-12-07T09:50:16;2.17;;;1.95;;
45762;SDS011;37512;52.408;13.356;2022-12-07T09:54:26;2.13;;;1.60;;
45762;SDS011;37512;52.408;13.356;2022-12-07T09:58:29;5.70;;;2.30;;
45762;SDS011;37512;52.408;13.356;2022-12-07T10:02:39;1.98;;;1.70;;
45762;SDS011;37512;52.408;13.356;2022-12-07T10:06:47;2.58;;;1.77;;
45762;SDS011;37512;52.408;13.356;2022-12-07T10:10:53;2.35;;;1.65;;
45762;SDS011;37512;52.408;13.356;2022-12-07T10:15:01;2.40;;;1.60;;
45762;SDS011;37512;52.408;13.356;2022-12-07T10:23:19;2.15;;;1.65;;
45762;SDS011;37512;52.408;13.356;2022-12-07T10:27:21;3.20;;;1.95;;
45762;SDS011;37512;52.408;13.356;2022-12-07T10:31:27;4.20;;;2.00;;
45762;SDS011;37512;52.408;13.356;2022-12-07T10:35:29;3.17;;;1.92;;
45762;SDS011;37512;52.408;13.356;2022-12-07T10:39:31;2.28;;;1.80;;
45762;SDS011;37512;52.408;13.356;2022-12-07T10:43:46;1.95;;;1.58;;
45762;SDS011;37512;52.408;13.356;2022-12-07T10:57:00;1.50;;;1.40;;
45762;SDS011;37512;52.408;13.356;2022-12-07T11:01:23;3.13;;;2.58;;
45762;SDS011;37512;52.408;13.356;2022-12-07T11:15:04;2.92;;;2.30;;
45762;SDS011;37512;52.408;13.356;2022-12-07T11:24:13;2.72;;;2.38;;
45762;SDS011;37512;52.408;13.356;2022-12-07T11:36:44;7.55;;;2.85;;
45762;SDS011;37512;52.408;13.356;2022-12-07T11:40:50;3.30;;;2.28;;
45762;SDS011;37512;52.408;13.356;2022-12-07T11:44:59;2.78;;;2.42;;
45762;SDS011;37512;52.408;13.356;2022-12-07T11:49:09;3.00;;;2.13;;
45762;SDS011;37512;52.408;13.356;2022-12-07T11:53:39;7.90;;;2.72;;
45762;SDS011;37512;52.408;13.356;2022-12-07T11:57:52;2.97;;;2.60;;
45762;SDS011;37512;52.408;13.356;2022-12-07T12:02:43;5.55;;;2.63;;
45762;SDS011;37512;52.408;13.356;2022-12-07T12:06:28;5.45;;;2.60;;
45762;SDS011;37512;52.408;13.356;2022-12-07T12:19:34;1.65;;;1.33;;
45762;SDS011;37512;52.408;13.356;2022-12-07T12:23:45;4.32;;;1.45;;
45762;SDS011;37512;52.408;13.356;2022-12-07T12:27:55;7.07;;;2.45;;
45762;SDS011;37512;52.408;13.356;2022-12-07T12:48:30;4.00;;;3.03;;
45762;SDS011;37512;52.408;13.356;2022-12-07T13:01:31;3.13;;;1.90;;
45762;SDS011;37512;52.408;13.356;2022-12-07T13:05:30;4.97;;;2.50;;
45762;SDS011;37512;52.408;13.356;2022-12-07T13:09:33;3.90;;;1.27;;
45762;SDS011;37512;52.408;13.356;2022-12-07T13:13:36;3.97;;;2.35;;
45762;SDS011;37512;52.408;13.356;2022-12-07T13:21:42;4.40;;;1.30;;
45762;SDS011;37512;52.408;13.356;2022-12-07T13:25:54;4.85;;;3.08;;
45762;SDS011;37512;52.408;13.356;2022-12-07T13:30:03;4.20;;;2.00;;
45762;SDS011;37512;52.408;13.356;2022-12-07T13:34:31;2.88;;;1.08;;
45762;SDS011;37512;52.408;13.356;2022-12-07T13:38:37;2.88;;;1.80;;
45762;SDS011;37512;52.408;13.356;2022-12-07T13:42:39;3.67;;;1.55;;
45762;SDS011;37512;52.408;13.356;2022-12-07T13:50:53;4.60;;;1.77;;
45762;SDS011;37512;52.408;13.356;2022-12-07T13:59:18;3.88;;;1.55;;
45762;SDS011;37512;52.408;13.356;2022-12-07T14:03:28;5.00;;;2.67;;
45762;SDS011;37512;52.408;13.356;2022-12-07T14:07:32;2.92;;;1.85;;
45762;SDS011;37512;52.408;13.356;2022-12-07T14:11:35;2.13;;;1.52;;
45762;SDS011;37512;52.408;13.356;2022-12-07T14:15:38;2.88;;;0.93;;
45762;SDS011;37512;52.408;13.356;2022-12-07T14:19:41;3.47;;;2.15;;
45762;SDS011;37512;52.408;13.356;2022-12-07T14:32:29;6.85;;;2.28;;
45762;SDS011;37512;52.408;13.356;2022-12-07T14:36:32;4.45;;;2.10;;
45762;SDS011;37512;52.408;13.356;2022-12-07T14:40:33;3.30;;;1.98;;
45762;SDS011;37512;52.408;13.356;2022-12-07T14:44:34;1.08;;;0.90;;
45762;SDS011;37512;52.408;13.356;2022-12-07T14:48:36;3.92;;;1.88;;
45762;SDS011;37512;52.408;13.356;2022-12-07T14:53:02;5.38;;;1.75;;
45762;SDS011;37512;52.408;13.356;2022-12-07T14:57:27;5.03;;;3.00;;
45762;SDS011;37512;52.408;13.356;2022-12-07T15:01:29;8.15;;;2.53;;
45762;SDS011;37512;52.408;13.356;2022-12-07T15:05:30;6.13;;;2.20;;
45762;SDS011;37512;52.408;13.356;2022-12-07T15:09:32;5.50;;;2.67;;
45762;SDS011;37512;52.408;13.356;2022-12-07T15:13:34;2.28;;;1.83;;
45762;SDS011;37512;52.408;13.356;2022-12-07T15:17:53;4.88;;;2.72;;
45762;SDS011;37512;52.408;13.356;2022-12-07T15:21:56;5.38;;;2.65;;
45762;SDS011;37512;52.408;13.356;2022-12-07T15:25:58;6.68;;;2.55;;
45762;SDS011;37512;52.408;13.356;2022-12-07T15:30:00;5.57;;;2.90;;
45762;SDS011;37512;52.408;13.356;2022-12-07T15:34:02;13.52;;;2.72;;
45762;SDS011;37512;52.408;13.356;2022-12-07T15:38:03;3.85;;;2.30;;
45762;SDS011;37512;52.408;13.356;2022-12-07T15:42:05;7.90;;;2.70;;
45762;SDS011;37512;52.408;13.356;2022-12-07T15:46:06;6.50;;;3.03;;
45762;SDS011;37512;52.408;13.356;2022-12-07T15:50:10;8.35;;;2.92;;
45762;SDS011;37512;52.408;13.356;2022-12-07T15:54:16;6.45;;;2.80;;
45762;SDS011;37512;52.408;13.356;2022-12-07T15:58:20;2.03;;;1.20;;
45762;SDS011;37512;52.408;13.356;2022-12-07T16:02:22;9.50;;;2.83;;
45762;SDS011;37512;52.408;13.356;2022-12-07T16:06:24;4.75;;;1.58;;
45762;SDS011;37512;52.408;13.356;2022-12-07T16:10:26;3.88;;;2.67;;
45762;SDS011;37512;52.408;13.356;2022-12-07T16:14:27;3.92;;;2.10;;
45762;SDS011;37512;52.408;13.356;2022-12-07T16:18:29;5.10;;;2.17;;
45762;SDS011;37512;52.408;13.356;2022-12-07T16:22:31;3.88;;;2.35;;
45762;SDS011;37512;52.408;13.356;2022-12-07T16:26:32;8.13;;;2.88;;
45762;SDS011;37512;52.408;13.356;2022-12-07T16:30:34;3.33;;;2.03;;
45762;SDS011;37512;52.408;13.356;2022-12-07T16:34:35;3.67;;;2.22;;
45762;SDS011;37512;52.408;13.356;2022-12-07T16:38:37;7.97;;;3.42;;
45762;SDS011;37512;52.408;13.356;2022-12-07T16:42:39;2.97;;;2.28;;
45762;SDS011;37512;52.408;13.356;2022-12-07T16:46:40;6.50;;;2.85;;
45762;SDS011;37512;52.408;13.356;2022-12-07T16:50:43;3.13;;;2.33;;
45762;SDS011;37512;52.408;13.356;2022-12-07T16:54:51;8.93;;;2.55;;
45762;SDS011;37512;52.408;13.356;2022-12-07T16:58:52;5.50;;;1.42;;
45762;SDS011;37512;52.408;13.356;2022-12-07T17:02:54;2.03;;;1.30;;
45762;SDS011;37512;52.408;13.356;2022-12-07T17:06:56;7.72;;;2.75;;
45762;SDS011;37512;52.408;13.356;2022-12-07T17:10:58;3.95;;;2.53;;
45762;SDS011;37512;52.408;13.356;2022-12-07T17:14:59;1.98;;;1.25;;
45762;SDS011;37512;52.408;13.356;2022-12-07T17:19:21;6.70;;;3.00;;
45762;SDS011;37512;52.408;13.356;2022-12-07T17:23:23;5.13;;;2.40;;
45762;SDS011;37512;52.408;13.356;2022-12-07T17:27:26;7.03;;;3.08;;
45762;SDS011;37512;52.408;13.356;2022-12-07T17:31:27;4.28;;;2.30;;
45762;SDS011;37512;52.408;13.356;2022-12-07T17:35:29;10.38;;;2.42;;
45762;SDS011;37512;52.408;13.356;2022-12-07T17:39:31;6.38;;;2.97;;
45762;SDS011;37512;52.408;13.356;2022-12-07T17:43:32;8.50;;;2.13;;
45762;SDS011;37512;52.408;13.356;2022-12-07T17:47:34;7.65;;;2.17;;
45762;SDS011;37512;52.408;13.356;2022-12-07T17:51:39;5.85;;;2.28;;
45762;SDS011;37512;52.408;13.356;2022-12-07T17:56:10;7.47;;;2.75;;
45762;SDS011;37512;52.408;13.356;2022-12-07T18:00:29;4.97;;;2.60;;
45762;SDS011;37512;52.408;13.356;2022-12-07T18:04:31;2.85;;;2.00;;
45762;SDS011;37512;52.408;13.356;2022-12-07T18:08:35;6.55;;;2.30;;
45762;SDS011;37512;52.408;13.356;2022-12-07T18:12:39;5.25;;;1.85;;
45762;SDS011;37512;52.408;13.356;2022-12-07T18:16:40;4.45;;;2.35;;
45762;SDS011;37512;52.408;13.356;2022-12-07T18:20:42;4.10;;;3.15;;
45762;SDS011;37512;52.408;13.356;2022-12-07T18:24:44;9.32;;;3.42;;
45762;SDS011;37512;52.408;13.356;2022-12-07T18:28:46;3.63;;;2.65;;
45762;SDS011;37512;52.408;13.356;2022-12-07T18:32:47;9.30;;;3.08;;
45762;SDS011;37512;52.408;13.356;2022-12-07T18:36:49;6.20;;;3.95;;
45762;SDS011;37512;52.408;13.356;2022-12-07T18:40:51;4.40;;;3.22;;
45762;SDS011;37512;52.408;13.356;2022-12-07T18:44:53;4.93;;;2.33;;
45762;SDS011;37512;52.408;13.356;2022-12-07T18:48:54;4.93;;;3.50;;
45762;SDS011;37512;52.408;13.356;2022-12-07T18:52:59;4.88;;;3.05;;
45762;SDS011;37512;52.408;13.356;2022-12-07T18:57:01;8.52;;;3.95;;
45762;SDS011;37512;52.408;13.356;2022-12-07T19:01:03;7.32;;;4.15;;
45762;SDS011;37512;52.408;13.356;2022-12-07T19:05:05;8.52;;;3.80;;
45762;SDS011;37512;52.408;13.356;2022-12-07T19:09:07;7.82;;;4.72;;
45762;SDS011;37512;52.408;13.356;2022-12-07T19:13:08;6.68;;;4.72;;
45762;SDS011;37512;52.408;13.356;2022-12-07T19:17:11;16.27;;;4.57;;
45762;SDS011;37512;52.408;13.356;2022-12-07T19:21:14;12.50;;;5.72;;
45762;SDS011;37512;52.408;13.356;2022-12-07T19:25:15;7.53;;;3.28;;
45762;SDS011;37512;52.408;13.356;2022-12-07T19:29:17;9.13;;;4.13;;
45762;SDS011;37512;52.408;13.356;2022-12-07T19:33:18;8.23;;;4.13;;
45762;SDS011;37512;52.408;13.356;2022-12-07T19:37:20;6.05;;;4.07;;
45762;SDS011;37512;52.408;13.356;2022-12-07T19:41:22;5.63;;;4.38;;
45762;SDS011;37512;52.408;13.356;2022-12-07T19:45:35;4.72;;;3.50;;
45762;SDS011;37512;52.408;13.356;2022-12-07T19:49:37;10.23;;;4.68;;
45762;SDS011;37512;52.408;13.356;2022-12-07T19:53:38;8.57;;;3.88;;
45762;SDS011;37512;52.408;13.356;2022-12-07T19:57:40;5.75;;;3.47;;
45762;SDS011;37512;52.408;13.356;2022-12-07T20:01:41;8.48;;;3.85;;
45762;SDS011;37512;52.408;13.356;2022-12-07T20:05:44;3.90;;;2.33;;
45762;SDS011;37512;52.408;13.356;2022-12-07T20:09:45;11.95;;;5.13;;
45762;SDS011;37512;52.408;13.356;2022-12-07T20:13:47;10.05;;;4.32;;
45762;SDS011;37512;52.408;13.356;2022-12-07T20:17:48;9.63;;;5.35;;
45762;SDS011;37512;52.408;13.356;2022-12-07T20:21:50;14.38;;;4.70;;
45762;SDS011;37512;52.408;13.356;2022-12-07T20:25:52;9.75;;;4.20;;
45762;SDS011;37512;52.408;13.356;2022-12-07T20:29:53;8.48;;;4.20;;
45762;SDS011;37512;52.408;13.356;2022-12-07T20:33:56;9.38;;;4.30;;
45762;SDS011;37512;52.408;13.356;2022-12-07T20:38:00;11.15;;;4.10;;
45762;SDS011;37512;52.408;13.356;2022-12-07T20:42:02;9.18;;;3.83;;
45762;SDS011;37512;52.408;13.356;2022-12-07T20:46:22;13.98;;;5.90;;
45762;SDS011;37512;52.408;13.356;2022-12-07T20:50:24;11.25;;;4.35;;
45762;SDS011;37512;52.408;13.356;2022-12-07T20:54:26;10.65;;;4.85;;
45762;SDS011;37512;52.408;13.356;2022-12-07T20:58:27;9.27;;;4.32;;
45762;SDS011;37512;52.408;13.356;2022-12-07T21:02:29;9.18;;;5.57;;
45762;SDS011;37512;52.408;13.356;2022-12-07T21:06:30;17.70;;;6.55;;
45762;SDS011;37512;52.408;13.356;2022-12-07T21:10:34;9.85;;;4.85;;
45762;SDS011;37512;52.408;13.356;2022-12-07T21:14:39;9.98;;;5.75;;
45762;SDS011;37512;52.408;13.356;2022-12-07T21:18:41;11.98;;;4.78;;
45762;SDS011;37512;52.408;13.356;2022-12-07T21:22:45;10.20;;;4.97;;
45762;SDS011;37512;52.408;13.356;2022-12-07T21:26:48;9.20;;;4.50;;
45762;SDS011;37512;52.408;13.356;2022-12-07T21:30:58;14.98;;;5.97;;
45762;SDS011;37512;52.408;13.356;2022-12-07T21:35:14;10.80;;;4.78;;
45762;SDS011;37512;52.408;13.356;2022-12-07T21:39:16;15.05;;;5.07;;
45762;SDS011;37512;52.408;13.356;2022-12-07T21:43:18;13.30;;;5.65;;
45762;SDS011;37512;52.408;13.356;2022-12-07T21:47:19;9.55;;;5.60;;
45762;SDS011;37512;52.408;13.356;2022-12-07T21:51:21;15.88;;;5.88;;
45762;SDS011;37512;52.408;13.356;2022-12-07T21:55:23;11.15;;;5.90;;
45762;SDS011;37512;52.408;13.356;2022-12-07T21:59:25;8.20;;;5.05;;
45762;SDS011;37512;52.408;13.356;2022-12-07T22:03:26;9.57;;;5.15;;
45762;SDS011;37512;52.408;13.356;2022-12-07T22:07:28;11.40;;;4.90;;
45762;SDS011;37512;52.408;13.356;2022-12-07T22:11:29;8.82;;;4.18;;
45762;SDS011;37512;52.408;13.356;2022-12-07T22:15:31;10.82;;;4.18;;
45762;SDS011;37512;52.408;13.356;2022-12-07T22:19:32;6.88;;;3.58;;
45762;SDS011;37512;52.408;13.356;2022-12-07T22:23:34;5.78;;;3.00;;
45762;SDS011;37512;52.408;13.356;2022-12-07T22:27:35;9.57;;;3.90;;
45762;SDS011;37512;52.408;13.356;2022-12-07T22:31:38;5.30;;;2.40;;
45762;SDS011;37512;52.408;13.356;2022-12-07T22:35:41;8.23;;;3.17;;
45762;SDS011;37512;52.408;13.356;2022-12-07T22:39:43;4.82;;;3.03;;
45762;SDS011;37512;52.408;13.356;2022-12-07T22:43:44;7.63;;;3.33;;
45762;SDS011;37512;52.408;13.356;2022-12-07T22:47:46;5.97;;;3.92;;
45762;SDS011;37512;52.408;13.356;2022-12-07T22:51:48;4.53;;;3.25;;
45762;SDS011;37512;52.408;13.356;2022-12-07T22:55:50;5.70;;;3.63;;
45762;SDS011;37512;52.408;13.356;2022-12-07T22:59:52;7.80;;;3.70;;
45762;SDS011;37512;52.408;13.356;2022-12-07T23:03:54;11.15;;;6.32;;
45762;SDS011;37512;52.408;13.356;2022-12-07T23:07:56;7.80;;;3.50;;
45762;SDS011;37512;52.408;13.356;2022-12-07T23:11:57;5.43;;;3.55;;
45762;SDS011;37512;52.408;13.356;2022-12-07T23:16:18;4.85;;;3.38;;
45762;SDS011;37512;52.408;13.356;2022-12-07T23:20:19;7.00;;;3.38;;
45762;SDS011;37512;52.408;13.356;2022-12-07T23:24:21;10.48;;;3.35;;
45762;SDS011;37512;52.408;13.356;2022-12-07T23:28:22;9.25;;;3.70;;
45762;SDS011;37512;52.408;13.356;2022-12-07T23:32:24;4.57;;;3.53;;
45762;SDS011;37512;52.408;13.356;2022-12-07T23:36:25;8.40;;;3.58;;
45762;SDS011;37512;52.408;13.356;2022-12-07T23:40:28;6.07;;;3.53;;
45762;SDS011;37512;52.408;13.356;2022-12-07T23:44:29;8.18;;;3.63;;
45762;SDS011;37512;52.408;13.356;2022-12-07T23:48:31;13.63;;;6.55;;
45762;SDS011;37512;52.408;13.356;2022-12-07T23:52:32;14.52;;;5.93;;
45762;SDS011;37512;52.408;13.356;2022-12-07T23:56:34;12.98;;;6.00;;
